createdAt,value
2023-03-01T00:01:48.827Z,4.45
2023-03-01T00:04:17.235Z,4.22
2023-03-01T00:06:48.859Z,4.45
2023-03-01T00:09:18.197Z,4.34
2023-03-01T00:11:47.214Z,4.55
2023-03-01T00:14:18.359Z,4.47
2023-03-01T00:16:47.505Z,4.57
2023-03-01T00:19:18.931Z,4.55
2023-03-01T00:21:47.471Z,4.32
2023-03-01T00:24:16.490Z,4.05
2023-03-01T00:26:45.093Z,3.76
2023-03-01T00:29:13.499Z,4.00
2023-03-01T00:31:41.959Z,4.13
2023-03-01T00:34:10.597Z,4.23
2023-03-01T00:36:39.396Z,4.29
2023-03-01T00:39:12.993Z,4.45
2023-03-01T00:41:42.292Z,4.17
2023-03-01T00:44:11.328Z,4.13
2023-03-01T00:46:40.006Z,4.20
2023-03-01T00:49:08.885Z,4.29
2023-03-01T00:51:37.330Z,4.35
2023-03-01T00:54:05.817Z,4.16
2023-03-01T00:56:34.560Z,4.14
2023-03-01T00:59:03.206Z,4.09
2023-03-01T01:01:32.477Z,4.05
2023-03-01T01:04:07.121Z,4.03
2023-03-01T01:06:44.788Z,4.14
2023-03-01T01:09:18.698Z,4.20
2023-03-01T01:11:49.229Z,4.12
2023-03-01T01:14:18.825Z,4.09
2023-03-01T01:16:47.315Z,4.17
2023-03-01T01:19:16.384Z,4.24
2023-03-01T01:21:45.770Z,4.28
2023-03-01T01:24:14.406Z,4.17
2023-03-01T01:26:43.347Z,4.30
2023-03-01T01:29:12.791Z,4.05
2023-03-01T01:31:42.737Z,4.04
2023-03-01T01:34:19.077Z,3.98
2023-03-01T01:36:54.941Z,3.96
2023-03-01T01:39:23.926Z,3.97
2023-03-01T01:41:52.349Z,3.92
2023-03-01T01:44:24.512Z,3.90
2023-03-01T01:47:02.244Z,3.79
2023-03-01T01:49:43.537Z,3.70
2023-03-01T01:52:22.553Z,3.72
2023-03-01T01:55:06.109Z,3.82
2023-03-01T01:57:50.394Z,3.90
2023-03-01T02:00:24.704Z,3.82
2023-03-01T02:02:58.806Z,3.76
2023-03-01T02:05:37.385Z,3.92
2023-03-01T02:08:06.964Z,3.82
2023-03-01T02:10:36.769Z,3.81
2023-03-01T02:13:05.551Z,3.64
2023-03-01T02:15:35.529Z,3.64
2023-03-01T02:18:05.241Z,3.73
2023-03-01T02:20:51.017Z,3.70
2023-03-01T02:23:19.625Z,3.69
2023-03-01T02:25:57.934Z,3.73
2023-03-01T02:28:46.769Z,3.94
2023-03-01T02:31:39.457Z,3.75
2023-03-01T02:34:11.373Z,3.50
2023-03-01T02:37:13.909Z,3.49
2023-03-01T02:39:49.112Z,3.52
2023-03-01T02:42:25.560Z,3.44
2023-03-01T02:44:55.535Z,3.25
2023-03-01T02:47:24.285Z,3.18
2023-03-01T02:49:52.950Z,3.15
2023-03-01T02:52:42.647Z,3.12
2023-03-01T02:55:17.428Z,3.25
2023-03-01T02:57:51.686Z,3.44
2023-03-01T03:00:26.260Z,3.26
2023-03-01T03:02:57.850Z,3.27
2023-03-01T03:05:29.138Z,3.48
2023-03-01T03:07:59.778Z,3.40
2023-03-01T03:10:30.888Z,3.53
2023-03-01T03:13:02.381Z,3.49
2023-03-01T03:15:30.777Z,3.43
2023-03-01T03:17:59.938Z,3.47
2023-03-01T03:20:29.689Z,3.28
2023-03-01T03:22:59.537Z,3.21
2023-03-01T03:25:30.225Z,3.33
2023-03-01T03:27:59.243Z,3.26
2023-03-01T03:30:30.998Z,3.21
2023-03-01T03:33:00.482Z,3.15
2023-03-01T03:35:31.577Z,2.82
2023-03-01T03:38:04.614Z,2.95
2023-03-01T03:40:46.688Z,3.12
2023-03-01T03:43:24.499Z,3.24
2023-03-01T03:45:53.227Z,3.06
2023-03-01T03:48:22.822Z,3.11
2023-03-01T03:50:56.297Z,3.01
2023-03-01T03:53:27.126Z,3.06
2023-03-01T03:55:55.898Z,3.18
2023-03-01T03:58:26.275Z,3.11
2023-03-01T04:00:57.865Z,3.06
2023-03-01T04:03:28.194Z,2.92
2023-03-01T04:05:59.660Z,3.15
2023-03-01T04:08:28.614Z,3.04
2023-03-01T04:11:22.665Z,3.10
2023-03-01T04:13:52.787Z,3.15
2023-03-01T04:16:21.499Z,3.06
2023-03-01T04:18:50.361Z,3.00
2023-03-01T04:21:21.171Z,2.82
2023-03-01T04:23:53.344Z,2.49
2023-03-01T04:26:21.733Z,2.78
2023-03-01T04:28:51.361Z,2.79
2023-03-01T04:31:22.333Z,2.68
2023-03-01T04:33:53.934Z,2.69
2023-03-01T04:36:26.087Z,2.93
2023-03-01T04:38:54.904Z,3.03
2023-03-01T04:41:25.815Z,2.86
2023-03-01T04:43:54.196Z,2.77
2023-03-01T04:46:23.077Z,2.83
2023-03-01T04:48:51.710Z,2.80
2023-03-01T04:51:20.193Z,2.85
2023-03-01T04:53:48.662Z,2.67
2023-03-01T04:56:19.013Z,2.92
2023-03-01T04:58:47.843Z,2.76
2023-03-01T05:01:19.757Z,2.81
2023-03-01T05:03:51.548Z,2.85
2023-03-01T05:06:21.184Z,2.86
2023-03-01T05:08:50.215Z,2.77
2023-03-01T05:11:18.669Z,2.74
2023-03-01T05:13:47.163Z,2.40
2023-03-01T05:16:15.787Z,2.42
2023-03-01T05:18:44.583Z,2.50
2023-03-01T05:21:17.098Z,2.51
2023-03-01T05:23:47.742Z,2.10
2023-03-01T05:26:33.884Z,1.92
2023-03-01T05:29:02.374Z,2.30
2023-03-01T05:31:31.870Z,2.46
2023-03-01T05:34:00.564Z,2.42
2023-03-01T05:36:29.428Z,2.57
2023-03-01T05:38:58.098Z,2.51
2023-03-01T05:41:26.533Z,2.57
2023-03-01T05:43:55.036Z,2.55
2023-03-01T05:46:25.344Z,2.47
2023-03-01T05:48:53.839Z,2.28
2023-03-01T05:51:23.171Z,2.23
2023-03-01T05:53:51.741Z,2.46
2023-03-01T05:56:20.165Z,2.64
2023-03-01T05:58:51.375Z,2.15
2023-03-01T06:01:19.777Z,2.30
2023-03-01T06:03:48.324Z,2.48
2023-03-01T06:06:16.826Z,2.53
2023-03-01T06:08:45.357Z,2.62
2023-03-01T06:11:13.867Z,2.50
2023-03-01T06:13:44.128Z,2.48
2023-03-01T06:16:13.443Z,2.43
2023-03-01T06:18:42.253Z,2.19
2023-03-01T06:21:10.680Z,2.11
2023-03-01T06:23:39.100Z,1.94
2023-03-01T06:26:09.390Z,2.19
2023-03-01T06:28:37.902Z,2.25
2023-03-01T06:31:09.679Z,2.13
2023-03-01T06:33:38.327Z,2.22
2023-03-01T06:36:07.520Z,2.22
2023-03-01T06:38:35.970Z,2.36
2023-03-01T06:41:04.632Z,2.18
2023-03-01T06:43:33.272Z,2.24
2023-03-01T06:46:05.807Z,2.17
2023-03-01T06:48:34.851Z,2.10
2023-03-01T06:51:03.416Z,2.21
2023-03-01T06:53:31.972Z,2.28
2023-03-01T06:56:03.358Z,1.99
2023-03-01T06:58:31.979Z,1.97
2023-03-01T07:01:00.636Z,1.62
2023-03-01T07:03:29.084Z,1.98
2023-03-01T07:05:57.510Z,2.13
2023-03-01T07:08:25.937Z,2.19
2023-03-01T07:10:58.778Z,2.41
2023-03-01T07:13:27.184Z,1.98
2023-03-01T07:15:55.829Z,2.15
2023-03-01T07:18:24.369Z,2.35
2023-03-01T07:20:52.866Z,2.39
2023-03-01T07:23:21.378Z,2.46
2023-03-01T07:25:54.718Z,2.58
2023-03-01T07:28:26.320Z,2.62
2023-03-01T07:30:55.379Z,2.83
2023-03-01T07:33:23.898Z,2.91
2023-03-01T07:35:58.683Z,2.69
2023-03-01T07:38:27.889Z,2.67
2023-03-01T07:41:01.589Z,2.56
2023-03-01T07:43:31.141Z,2.29
2023-03-01T07:46:01.411Z,2.50
2023-03-01T07:48:31.724Z,2.78
2023-03-01T07:51:01.606Z,2.98
2023-03-01T07:53:32.179Z,2.98
2023-03-01T07:56:13.976Z,3.06
2023-03-01T07:58:43.498Z,3.09
2023-03-01T08:01:16.040Z,3.27
2023-03-01T08:03:44.864Z,3.38
2023-03-01T08:06:15.725Z,3.41
2023-03-01T08:08:44.543Z,3.24
2023-03-01T08:11:15.367Z,3.03
2023-03-01T08:13:44.400Z,3.00
2023-03-01T08:16:15.557Z,3.33
2023-03-01T08:18:44.773Z,3.56
2023-03-01T08:21:16.082Z,3.25
2023-03-01T08:23:45.521Z,3.38
2023-03-01T08:26:20.843Z,3.81
2023-03-01T08:28:50.162Z,3.71
2023-03-01T08:31:21.677Z,4.03
2023-03-01T08:33:56.366Z,3.87
2023-03-01T08:36:27.403Z,3.85
2023-03-01T08:38:56.197Z,4.00
2023-03-01T08:41:24.931Z,3.95
2023-03-01T08:43:59.339Z,3.76
2023-03-01T08:46:33.859Z,3.71
2023-03-01T08:49:12.124Z,3.61
2023-03-01T08:51:41.228Z,4.10
2023-03-01T08:54:17.965Z,4.08
2023-03-01T08:56:46.951Z,4.37
2023-03-01T08:59:16.984Z,4.33
2023-03-01T09:01:45.591Z,4.72
2023-03-01T09:04:15.691Z,4.29
2023-03-01T09:06:44.234Z,3.99
2023-03-01T09:09:17.485Z,4.15
2023-03-01T09:11:47.768Z,4.57
2023-03-01T09:14:16.673Z,4.48
2023-03-01T09:16:46.074Z,4.78
2023-03-01T09:19:15.123Z,5.30
2023-03-01T09:21:53.115Z,4.86
2023-03-01T09:24:23.253Z,5.18
2023-03-01T09:26:55.651Z,5.16
2023-03-01T09:29:24.577Z,5.24
2023-03-01T09:31:56.082Z,5.17
2023-03-01T09:34:24.824Z,5.72
2023-03-01T09:36:53.369Z,5.68
2023-03-01T09:39:21.785Z,5.94
2023-03-01T09:42:05.365Z,6.12
2023-03-01T09:44:44.827Z,6.23
2023-03-01T09:47:22.801Z,6.12
2023-03-01T09:50:04.500Z,6.49
2023-03-01T09:52:54.832Z,6.32
2023-03-01T09:55:56.693Z,5.86
2023-03-01T09:59:02.554Z,6.11
2023-03-01T10:01:46.554Z,6.36
2023-03-01T10:04:29.740Z,6.37
2023-03-01T10:07:10.175Z,5.88
2023-03-01T10:09:41.900Z,6.37
2023-03-01T10:12:14.801Z,5.74
2023-03-01T10:15:17.441Z,5.81
2023-03-01T10:17:53.808Z,5.85
2023-03-01T10:20:22.302Z,5.30
2023-03-01T10:22:53.402Z,6.17
2023-03-01T10:25:25.597Z,6.83
2023-03-01T10:27:55.020Z,6.91
2023-03-01T10:30:30.560Z,7.03
2023-03-01T10:32:59.601Z,7.28
2023-03-01T10:35:30.244Z,7.38
2023-03-01T10:38:09.737Z,6.80
2023-03-01T10:40:55.911Z,6.40
2023-03-01T10:43:26.487Z,7.22
2023-03-01T10:45:54.950Z,7.45
2023-03-01T10:48:27.214Z,7.52
2023-03-01T10:50:58.335Z,7.89
2023-03-01T10:53:33.066Z,7.97
2023-03-01T10:56:08.073Z,7.84
2023-03-01T10:58:38.647Z,7.60
2023-03-01T11:01:27.519Z,6.66
2023-03-01T11:04:08.307Z,6.63
2023-03-01T11:06:38.821Z,7.14
2023-03-01T11:09:18.936Z,7.66
2023-03-01T11:11:52.594Z,7.48
2023-03-01T11:14:28.462Z,7.73
2023-03-01T11:17:16.378Z,7.98
2023-03-01T11:20:02.985Z,8.07
2023-03-01T11:22:33.841Z,8.00
2023-03-01T11:25:10.377Z,7.81
2023-03-01T11:27:44.043Z,7.75
2023-03-01T11:30:30.202Z,8.09
2023-03-01T11:33:22.615Z,8.21
2023-03-01T11:36:17.134Z,8.21
2023-03-01T11:38:45.676Z,7.95
2023-03-01T11:41:18.896Z,7.79
2023-03-01T11:43:59.732Z,8.03
2023-03-01T11:46:34.273Z,8.24
2023-03-01T11:49:44.764Z,8.80
2023-03-01T11:52:55.868Z,8.61
2023-03-01T11:56:05.865Z,8.38
2023-03-01T11:59:00.669Z,8.58
2023-03-01T12:01:44.735Z,7.33
2023-03-01T12:04:24.762Z,7.72
2023-03-01T12:06:57.652Z,7.68
2023-03-01T12:10:07.978Z,8.53
2023-03-01T12:12:45.556Z,8.45
2023-03-01T12:15:20.228Z,8.03
2023-03-01T12:18:16.606Z,8.49
2023-03-01T12:20:56.220Z,8.86
2023-03-01T12:23:51.072Z,8.67
2023-03-01T12:26:28.358Z,8.61
2023-03-01T12:29:15.009Z,7.96
2023-03-01T12:32:23.361Z,8.39
2023-03-01T12:35:13.563Z,8.38
2023-03-01T12:37:54.081Z,8.21
2023-03-01T12:40:31.489Z,8.14
2023-03-01T12:43:31.709Z,8.30
2023-03-01T12:46:32.791Z,8.60
2023-03-01T12:49:11.813Z,8.97
2023-03-01T12:51:41.795Z,8.49
2023-03-01T12:54:20.562Z,8.68
2023-03-01T12:56:53.432Z,8.59
2023-03-01T12:59:30.975Z,8.79
2023-03-01T13:02:11.355Z,8.72
2023-03-01T13:05:04.881Z,8.96
2023-03-01T13:08:01.387Z,8.72
2023-03-01T13:10:50.588Z,8.67
2023-03-01T13:13:25.169Z,8.87
2023-03-01T13:15:54.549Z,8.76
2023-03-01T13:18:28.782Z,9.07
2023-03-01T13:21:00.305Z,9.25
2023-03-01T13:23:32.873Z,8.41
2023-03-01T13:26:02.710Z,9.13
2023-03-01T13:28:37.036Z,8.98
2023-03-01T13:31:07.674Z,8.81
2023-03-01T13:33:52.030Z,8.84
2023-03-01T13:36:43.605Z,9.11
2023-03-01T13:39:24.338Z,8.21
2023-03-01T13:41:55.430Z,8.65
2023-03-01T13:44:24.596Z,8.32
2023-03-01T13:46:57.117Z,8.57
2023-03-01T13:49:45.938Z,8.73
2023-03-01T13:52:29.266Z,8.44
2023-03-01T13:54:59.005Z,8.88
2023-03-01T13:57:34.932Z,9.07
2023-03-01T14:00:05.773Z,8.86
2023-03-01T14:02:35.258Z,9.11
2023-03-01T14:05:04.023Z,8.92
2023-03-01T14:07:32.377Z,8.39
2023-03-01T14:10:05.975Z,8.40
2023-03-01T14:12:52.268Z,8.79
2023-03-01T14:15:27.630Z,8.55
2023-03-01T14:18:02.237Z,8.60
2023-03-01T14:20:38.439Z,8.66
2023-03-01T14:23:14.541Z,8.71
2023-03-01T14:25:57.534Z,8.76
2023-03-01T14:28:29.247Z,8.68
2023-03-01T14:30:59.823Z,8.83
2023-03-01T14:33:34.425Z,8.87
2023-03-01T14:36:14.064Z,8.92
2023-03-01T14:38:47.036Z,9.57
2023-03-01T14:41:19.562Z,9.29
2023-03-01T14:43:54.105Z,8.96
2023-03-01T14:46:41.453Z,9.17
2023-03-01T14:49:18.263Z,9.81
2023-03-01T14:51:54.239Z,9.47
2023-03-01T14:54:32.777Z,9.54
2023-03-01T14:57:02.778Z,9.47
2023-03-01T14:59:34.471Z,9.62
2023-03-01T15:02:03.609Z,9.07
2023-03-01T15:04:33.114Z,9.46
2023-03-01T15:07:05.917Z,9.71
2023-03-01T15:09:37.458Z,9.07
2023-03-01T15:12:28.120Z,9.33
2023-03-01T15:15:04.373Z,9.42
2023-03-01T15:17:36.807Z,9.51
2023-03-01T15:20:17.646Z,9.71
2023-03-01T15:22:49.646Z,9.74
2023-03-01T15:25:20.465Z,9.73
2023-03-01T15:27:51.471Z,9.58
2023-03-01T15:30:22.235Z,9.11
2023-03-01T15:33:19.946Z,9.30
2023-03-01T15:35:54.661Z,9.11
2023-03-01T15:38:32.966Z,8.72
2023-03-01T15:41:04.559Z,8.53
2023-03-01T15:43:46.789Z,9.02
2023-03-01T15:46:28.419Z,8.84
2023-03-01T15:49:03.338Z,9.11
2023-03-01T15:51:37.023Z,8.71
2023-03-01T15:54:14.477Z,8.93
2023-03-01T15:56:42.938Z,9.35
2023-03-01T15:59:14.899Z,8.70
2023-03-01T16:01:43.478Z,8.57
2023-03-01T16:04:21.682Z,8.50
2023-03-01T16:06:56.062Z,9.07
2023-03-01T16:09:26.387Z,8.60
2023-03-01T16:11:55.206Z,8.63
2023-03-01T16:14:24.016Z,9.14
2023-03-01T16:16:52.449Z,9.06
2023-03-01T16:19:21.077Z,8.96
2023-03-01T16:21:50.869Z,9.18
2023-03-01T16:24:19.323Z,9.14
2023-03-01T16:26:47.763Z,8.79
2023-03-01T16:29:17.194Z,8.26
2023-03-01T16:31:45.889Z,8.35
2023-03-01T16:34:14.582Z,8.48
2023-03-01T16:36:43.848Z,8.26
2023-03-01T16:39:12.330Z,8.39
2023-03-01T16:41:40.838Z,8.58
2023-03-01T16:44:09.358Z,8.62
2023-03-01T16:46:37.900Z,8.56
2023-03-01T16:49:06.281Z,8.66
2023-03-01T16:51:36.510Z,8.33
2023-03-01T16:54:06.367Z,8.28
2023-03-01T16:56:38.433Z,8.34
2023-03-01T16:59:07.491Z,8.69
2023-03-01T17:01:40.442Z,8.89
2023-03-01T17:04:12.632Z,8.84
2023-03-01T17:06:41.196Z,8.76
2023-03-01T17:09:10.356Z,8.10
2023-03-01T17:11:38.982Z,8.29
2023-03-01T17:14:07.905Z,8.55
2023-03-01T17:16:36.815Z,8.53
2023-03-01T17:19:05.345Z,8.58
2023-03-01T17:21:34.127Z,8.64
2023-03-01T17:24:02.660Z,8.60
2023-03-01T17:26:31.122Z,8.48
2023-03-01T17:28:59.725Z,8.46
2023-03-01T17:31:28.175Z,8.30
2023-03-01T17:33:58.863Z,8.44
2023-03-01T17:36:28.278Z,8.58
2023-03-01T17:38:56.741Z,8.61
2023-03-01T17:41:25.165Z,8.39
2023-03-01T17:43:53.678Z,8.35
2023-03-01T17:46:22.209Z,8.40
2023-03-01T17:48:50.583Z,8.54
2023-03-01T17:51:19.213Z,8.06
2023-03-01T17:53:47.631Z,8.22
2023-03-01T17:56:16.255Z,7.92
2023-03-01T17:58:46.740Z,7.89
2023-03-01T18:01:18.588Z,8.20
2023-03-01T18:03:47.801Z,8.01
2023-03-01T18:06:26.393Z,8.11
2023-03-01T18:08:55.198Z,8.13
2023-03-01T18:11:25.654Z,7.87
2023-03-01T18:13:55.274Z,7.95
2023-03-01T18:16:24.027Z,7.94
2023-03-01T18:18:54.126Z,8.04
2023-03-01T18:21:26.483Z,8.07
2023-03-01T18:23:55.068Z,8.06
2023-03-01T18:26:25.122Z,7.92
2023-03-01T18:28:53.898Z,7.96
2023-03-01T18:31:22.712Z,7.68
2023-03-01T18:33:54.738Z,7.67
2023-03-01T18:36:26.140Z,7.41
2023-03-01T18:38:56.405Z,7.61
2023-03-01T18:41:27.249Z,7.61
2023-03-01T18:43:57.025Z,7.58
2023-03-01T18:46:26.064Z,7.52
2023-03-01T18:48:55.123Z,7.48
2023-03-01T18:51:26.841Z,7.18
2023-03-01T18:53:58.954Z,7.27
2023-03-01T18:56:32.055Z,7.43
2023-03-01T18:59:02.354Z,7.16
2023-03-01T19:01:36.170Z,7.31
2023-03-01T19:04:06.001Z,7.35
2023-03-01T19:06:35.370Z,7.36
2023-03-01T19:09:05.494Z,7.43
2023-03-01T19:11:35.592Z,7.23
2023-03-01T19:14:04.587Z,7.06
2023-03-01T19:16:34.475Z,7.10
2023-03-01T19:19:05.310Z,6.89
2023-03-01T19:21:34.226Z,7.09
2023-03-01T19:24:03.117Z,7.19
2023-03-01T19:26:32.830Z,7.06
2023-03-01T19:29:03.467Z,7.09
2023-03-01T19:31:32.212Z,7.03
2023-03-01T19:34:10.980Z,6.90
2023-03-01T19:36:42.744Z,6.69
2023-03-01T19:39:13.503Z,6.94
2023-03-01T19:41:43.176Z,7.09
2023-03-01T19:44:12.289Z,7.25
2023-03-01T19:46:41.770Z,7.12
2023-03-01T19:49:10.352Z,7.09
2023-03-01T19:51:39.370Z,7.02
2023-03-01T19:54:09.806Z,7.01
2023-03-01T19:56:38.774Z,7.14
2023-03-01T19:59:07.717Z,6.95
2023-03-01T20:01:37.645Z,6.93
2023-03-01T20:04:06.519Z,6.78
2023-03-01T20:06:35.687Z,6.61
2023-03-01T20:09:19.050Z,6.69
2023-03-01T20:11:49.985Z,6.69
2023-03-01T20:14:21.087Z,6.66
2023-03-01T20:16:52.814Z,6.49
2023-03-01T20:19:21.625Z,6.52
2023-03-01T20:21:50.356Z,6.52
2023-03-01T20:24:18.807Z,6.27
2023-03-01T20:26:47.418Z,6.22
2023-03-01T20:29:16.026Z,6.32
2023-03-01T20:31:44.605Z,6.32
2023-03-01T20:34:13.298Z,6.39
2023-03-01T20:36:43.862Z,6.49
2023-03-01T20:39:12.348Z,6.40
2023-03-01T20:41:40.946Z,6.40
2023-03-01T20:44:09.865Z,6.15
2023-03-01T20:46:38.893Z,6.33
2023-03-01T20:49:07.406Z,6.01
2023-03-01T20:51:35.975Z,6.16
2023-03-01T20:54:05.151Z,6.16
2023-03-01T20:56:34.329Z,6.19
2023-03-01T20:59:10.488Z,5.87
2023-03-01T21:01:39.792Z,5.53
2023-03-01T21:04:09.213Z,5.79
2023-03-01T21:06:38.831Z,5.81
2023-03-01T21:09:07.245Z,5.76
2023-03-01T21:11:36.069Z,5.67
2023-03-01T21:14:07.488Z,5.72
2023-03-01T21:16:36.487Z,5.67
2023-03-01T21:19:05.140Z,5.68
2023-03-01T21:21:33.726Z,5.39
2023-03-01T21:24:02.553Z,5.12
2023-03-01T21:26:31.140Z,5.55
2023-03-01T21:29:01.519Z,5.65
2023-03-01T21:31:35.290Z,5.59
2023-03-01T21:34:06.192Z,5.61
2023-03-01T21:36:35.942Z,5.39
2023-03-01T21:39:06.177Z,5.41
2023-03-01T21:41:37.050Z,5.44
2023-03-01T21:44:07.272Z,5.31
2023-03-01T21:46:38.730Z,5.42
2023-03-01T21:49:09.785Z,5.58
2023-03-01T21:51:38.388Z,5.58
2023-03-01T21:54:07.351Z,5.47
2023-03-01T21:56:39.297Z,5.30
2023-03-01T21:59:12.873Z,5.11
2023-03-01T22:01:41.567Z,5.18
2023-03-01T22:04:10.864Z,5.43
2023-03-01T22:06:42.818Z,5.37
2023-03-01T22:09:17.488Z,5.28
2023-03-01T22:12:02.437Z,5.20
2023-03-01T22:14:32.288Z,5.07
2023-03-01T22:17:00.871Z,5.36
2023-03-01T22:19:30.257Z,5.29
2023-03-01T22:21:58.678Z,5.23
2023-03-01T22:24:27.250Z,5.36
2023-03-01T22:26:55.860Z,4.85
2023-03-01T22:29:29.099Z,4.96
2023-03-01T22:31:58.285Z,4.80
2023-03-01T22:34:27.386Z,4.85
2023-03-01T22:36:56.556Z,5.13
2023-03-01T22:39:25.030Z,5.21
2023-03-01T22:41:54.031Z,5.43
2023-03-01T22:44:23.539Z,5.18
2023-03-01T22:46:52.835Z,5.14
2023-03-01T22:49:21.552Z,5.37
2023-03-01T22:51:51.457Z,5.14
2023-03-01T22:54:20.532Z,5.08
2023-03-01T22:56:49.586Z,4.94
2023-03-01T22:59:22.503Z,5.08
2023-03-01T23:01:52.374Z,5.20
2023-03-01T23:04:22.376Z,5.28
2023-03-01T23:06:53.587Z,5.18
2023-03-01T23:09:22.088Z,4.95
2023-03-01T23:11:51.334Z,4.94
2023-03-01T23:14:21.184Z,5.00
2023-03-01T23:16:49.982Z,4.95
2023-03-01T23:19:18.965Z,4.95
2023-03-01T23:21:50.245Z,4.83
2023-03-01T23:24:21.385Z,4.85
2023-03-01T23:26:55.884Z,4.70
2023-03-01T23:29:24.297Z,4.90
2023-03-01T23:31:57.375Z,4.90
2023-03-01T23:34:26.748Z,4.88
2023-03-01T23:36:55.744Z,4.81
2023-03-01T23:39:24.222Z,4.70
2023-03-01T23:41:52.690Z,4.71
2023-03-01T23:44:21.448Z,4.74
2023-03-01T23:46:50.661Z,4.65
2023-03-01T23:49:22.312Z,4.77
2023-03-01T23:51:51.395Z,4.73
2023-03-01T23:54:22.683Z,4.85
2023-03-01T23:56:51.241Z,4.69
2023-03-01T23:59:22.348Z,4.82
